createdAt,value
2019-03-27T00:00:10.061Z,67.19
2019-03-27T00:02:38.941Z,66.95
2019-03-27T00:05:08.103Z,66.69
2019-03-27T00:07:36.956Z,66.85
2019-03-27T00:10:08.541Z,66.41
2019-03-27T00:12:37.900Z,66.60
2019-03-27T00:15:13.466Z,66.37
2019-03-27T00:17:41.223Z,66.37
2019-03-27T00:20:10.983Z,66.47
2019-03-27T00:22:39.802Z,66.40
2019-03-27T00:25:09.060Z,66.13
2019-03-27T00:27:37.819Z,65.16
2019-03-27T00:30:11.262Z,64.74
2019-03-27T00:32:40.009Z,64.60
2019-03-27T00:35:09.585Z,64.49
2019-03-27T00:37:38.343Z,64.36
2019-03-27T00:40:08.501Z,64.02
2019-03-27T00:42:37.242Z,64.32
2019-03-27T00:45:08.222Z,64.59
2019-03-27T00:47:37.003Z,64.79
2019-03-27T00:50:08.304Z,64.63
2019-03-27T00:52:37.201Z,64.83
2019-03-27T00:55:07.270Z,64.82
2019-03-27T00:57:35.978Z,64.47
2019-03-27T01:00:10.746Z,64.76
2019-03-27T01:02:39.542Z,64.45
2019-03-27T01:05:08.370Z,64.24
2019-03-27T01:07:37.204Z,63.93
2019-03-27T01:10:05.962Z,63.64
2019-03-27T01:12:34.767Z,63.36
2019-03-27T01:15:03.932Z,62.28
2019-03-27T01:17:32.702Z,62.26
2019-03-27T01:20:01.490Z,62.45
2019-03-27T01:22:30.323Z,62.25
2019-03-27T01:24:59.105Z,61.97
2019-03-27T01:27:27.890Z,62.09
2019-03-27T01:29:56.761Z,61.59
2019-03-27T01:32:25.620Z,61.49
2019-03-27T01:34:54.362Z,61.09
2019-03-27T01:37:23.181Z,60.48
2019-03-27T01:39:51.942Z,60.19
2019-03-27T01:42:20.702Z,59.69
2019-03-27T01:44:49.544Z,60.16
2019-03-27T01:47:18.285Z,60.39
2019-03-27T01:49:47.021Z,60.91
2019-03-27T01:52:15.928Z,60.89
2019-03-27T01:54:44.702Z,60.47
2019-03-27T01:57:13.501Z,60.20
2019-03-27T01:59:42.302Z,59.88
2019-03-27T02:02:11.013Z,60.09
2019-03-27T02:04:39.848Z,60.18
2019-03-27T02:07:08.631Z,60.06
2019-03-27T02:09:37.369Z,60.15
2019-03-27T02:12:06.103Z,60.21
2019-03-27T02:14:34.891Z,60.56
2019-03-27T02:17:03.631Z,60.81
2019-03-27T02:19:32.366Z,60.73
2019-03-27T02:22:01.143Z,60.99
2019-03-27T02:24:29.876Z,61.50
2019-03-27T02:26:58.811Z,61.82
2019-03-27T02:29:27.606Z,62.66
2019-03-27T02:31:56.339Z,63.40
2019-03-27T02:34:25.081Z,64.62
2019-03-27T02:36:53.866Z,64.23
2019-03-27T02:39:22.592Z,65.48
2019-03-27T02:41:51.318Z,66.28
2019-03-27T02:44:20.114Z,67.36
2019-03-27T02:46:48.877Z,67.81
2019-03-27T02:49:17.613Z,67.34
2019-03-27T02:51:46.397Z,67.74
2019-03-27T02:54:15.135Z,67.42
2019-03-27T02:56:43.863Z,68.42
2019-03-27T02:59:12.647Z,68.60
2019-03-27T03:01:41.371Z,68.36
2019-03-27T03:04:10.114Z,68.43
2019-03-27T03:06:38.927Z,68.73
2019-03-27T03:09:08.081Z,68.98
2019-03-27T03:11:36.842Z,69.66
2019-03-27T03:14:05.689Z,69.97
2019-03-27T03:16:42.091Z,70.26
2019-03-27T03:19:04.924Z,70.13
2019-03-27T03:21:33.799Z,69.80
2019-03-27T03:24:02.537Z,69.24
2019-03-27T03:26:31.283Z,68.90
2019-03-27T03:29:00.081Z,69.13
2019-03-27T03:31:28.805Z,69.62
2019-03-27T03:33:57.553Z,70.59
2019-03-27T03:36:26.338Z,71.07
2019-03-27T03:38:55.108Z,71.88
2019-03-27T03:41:23.852Z,71.76
2019-03-27T03:43:52.677Z,71.11
2019-03-27T03:46:21.422Z,70.71
2019-03-27T03:48:50.273Z,71.31
2019-03-27T03:51:19.057Z,71.27
2019-03-27T03:53:48.229Z,71.26
2019-03-27T03:56:17.564Z,70.96
2019-03-27T03:58:48.351Z,71.02
2019-03-27T04:01:19.999Z,70.85
2019-03-27T04:03:49.442Z,71.23
2019-03-27T04:06:18.337Z,71.48
2019-03-27T04:08:47.081Z,71.98
2019-03-27T04:11:15.827Z,71.81
2019-03-27T04:13:44.603Z,71.43
2019-03-27T04:16:13.342Z,71.37
2019-03-27T04:18:42.095Z,71.34
2019-03-27T04:21:10.922Z,70.93
2019-03-27T04:23:39.657Z,70.09
2019-03-27T04:26:10.461Z,69.93
2019-03-27T04:28:38.902Z,69.19
2019-03-27T04:31:07.635Z,69.14
2019-03-27T04:33:36.381Z,69.55
2019-03-27T04:36:05.196Z,69.95
2019-03-27T04:38:33.935Z,70.25
2019-03-27T04:41:02.677Z,69.88
2019-03-27T04:43:31.472Z,69.49
2019-03-27T04:46:00.221Z,69.84
2019-03-27T04:48:28.960Z,70.37
2019-03-27T04:50:57.681Z,70.82
2019-03-27T04:53:26.497Z,71.24
2019-03-27T04:55:55.271Z,70.80
2019-03-27T04:58:24.105Z,70.71
2019-03-27T05:00:52.827Z,70.39
2019-03-27T05:03:21.572Z,69.90
2019-03-27T05:05:50.382Z,69.29
2019-03-27T05:08:19.121Z,69.78
2019-03-27T05:10:47.871Z,69.92
2019-03-27T05:13:16.671Z,70.16
2019-03-27T05:15:45.417Z,70.00
2019-03-27T05:18:14.152Z,70.03
2019-03-27T05:20:42.946Z,69.76
2019-03-27T05:23:11.687Z,69.76
2019-03-27T05:25:40.453Z,70.05
2019-03-27T05:28:09.216Z,69.89
2019-03-27T05:30:37.957Z,69.45
2019-03-27T05:33:06.703Z,68.79
2019-03-27T05:35:35.508Z,68.40
2019-03-27T05:38:04.255Z,68.71
2019-03-27T05:40:33.182Z,68.82
2019-03-27T05:43:02.007Z,68.48
2019-03-27T05:45:30.721Z,68.05
2019-03-27T05:48:00.153Z,67.81
2019-03-27T05:50:29.021Z,67.79
2019-03-27T05:52:57.767Z,67.48
2019-03-27T05:55:26.776Z,67.26
2019-03-27T05:57:55.677Z,67.60
2019-03-27T06:00:24.422Z,67.80
2019-03-27T06:02:53.146Z,67.62
2019-03-27T06:05:21.936Z,67.70
2019-03-27T06:07:50.666Z,67.55
2019-03-27T06:10:19.382Z,67.38
2019-03-27T06:12:48.166Z,67.94
2019-03-27T06:15:16.893Z,67.96
2019-03-27T06:17:45.617Z,67.95
2019-03-27T06:20:14.516Z,68.17
2019-03-27T06:22:43.299Z,68.42
2019-03-27T06:25:12.072Z,68.29
2019-03-27T06:27:40.853Z,67.65
2019-03-27T06:30:10.796Z,67.85
2019-03-27T06:32:39.519Z,67.46
2019-03-27T06:35:08.796Z,67.31
2019-03-27T06:37:37.543Z,65.79
2019-03-27T06:40:07.498Z,65.06
2019-03-27T06:42:36.376Z,64.38
2019-03-27T06:45:06.841Z,63.48
2019-03-27T06:47:35.588Z,62.19
2019-03-27T06:50:05.381Z,62.35
2019-03-27T06:52:34.121Z,61.88
2019-03-27T06:55:02.880Z,60.50
2019-03-27T06:57:31.708Z,60.27
2019-03-27T07:00:00.420Z,60.23
2019-03-27T07:02:29.171Z,59.84
2019-03-27T07:04:59.967Z,58.44
2019-03-27T07:07:28.712Z,59.54
2019-03-27T07:09:57.458Z,58.61
2019-03-27T07:12:26.260Z,58.47
2019-03-27T07:14:55.036Z,58.65
2019-03-27T07:17:23.732Z,56.90
2019-03-27T07:19:52.531Z,57.16
2019-03-27T07:22:21.272Z,55.96
2019-03-27T07:24:50.026Z,56.40
2019-03-27T07:27:18.851Z,56.81
2019-03-27T07:29:47.554Z,57.90
2019-03-27T07:32:16.278Z,56.92
2019-03-27T07:34:45.056Z,56.46
2019-03-27T07:37:13.803Z,56.13
2019-03-27T07:39:42.511Z,55.71
2019-03-27T07:42:11.313Z,56.08
2019-03-27T07:44:40.052Z,55.47
2019-03-27T07:47:08.782Z,56.71
2019-03-27T07:49:37.596Z,56.55
2019-03-27T07:52:06.331Z,55.47
2019-03-27T07:54:35.076Z,55.42
2019-03-27T07:57:03.933Z,54.39
2019-03-27T07:59:32.661Z,56.22
2019-03-27T08:02:01.432Z,54.66
2019-03-27T08:04:30.260Z,54.05
2019-03-27T08:06:58.977Z,53.81
2019-03-27T08:09:27.722Z,52.50
2019-03-27T08:11:56.521Z,51.53
2019-03-27T08:14:28.158Z,52.47
2019-03-27T08:16:57.013Z,52.34
2019-03-27T08:19:25.827Z,52.24
2019-03-27T08:21:54.552Z,51.95
2019-03-27T08:24:23.291Z,53.29
2019-03-27T08:26:52.158Z,54.17
2019-03-27T08:29:20.897Z,53.14
2019-03-27T08:31:49.632Z,52.12
2019-03-27T08:34:18.522Z,52.11
2019-03-27T08:36:47.297Z,51.54
2019-03-27T08:39:16.032Z,50.58
2019-03-27T08:41:44.837Z,48.80
2019-03-27T08:44:13.572Z,50.48
2019-03-27T08:46:42.356Z,49.23
2019-03-27T08:49:21.731Z,48.80
2019-03-27T08:51:41.732Z,50.15
2019-03-27T08:54:10.538Z,50.62
2019-03-27T08:56:39.392Z,51.45
2019-03-27T08:59:08.116Z,50.82
2019-03-27T09:01:36.838Z,50.84
2019-03-27T09:04:05.635Z,51.36
2019-03-27T09:06:34.443Z,47.58
2019-03-27T09:09:03.886Z,47.91
2019-03-27T09:11:32.667Z,47.93
2019-03-27T09:14:01.406Z,48.70
2019-03-27T09:16:31.673Z,48.23
2019-03-27T09:19:00.467Z,49.09
2019-03-27T09:21:29.231Z,47.79
2019-03-27T09:23:57.946Z,50.52
2019-03-27T09:26:26.713Z,49.06
2019-03-27T09:28:55.487Z,48.74
2019-03-27T09:31:24.286Z,46.91
2019-03-27T09:33:53.022Z,46.86
2019-03-27T09:36:21.757Z,47.49
2019-03-27T09:38:50.528Z,45.84
2019-03-27T09:41:21.436Z,43.42
2019-03-27T09:43:49.782Z,38.87
2019-03-27T09:46:18.517Z,41.96
2019-03-27T09:48:47.246Z,43.38
2019-03-27T09:51:16.015Z,41.02
2019-03-27T09:53:44.753Z,40.96
2019-03-27T09:56:19.228Z,40.96
2019-03-27T09:58:43.997Z,40.51
2019-03-27T10:01:12.742Z,39.25
2019-03-27T10:03:41.497Z,38.96
2019-03-27T10:06:10.268Z,39.82
2019-03-27T10:08:39.102Z,39.40
2019-03-27T10:11:07.840Z,41.36
2019-03-27T10:13:37.808Z,42.67
2019-03-27T10:16:06.827Z,41.86
2019-03-27T10:18:36.257Z,41.45
2019-03-27T10:21:05.056Z,41.86
2019-03-27T10:23:33.796Z,42.37
2019-03-27T10:26:04.137Z,42.74
2019-03-27T10:28:32.909Z,43.47
2019-03-27T10:31:01.675Z,41.77
2019-03-27T10:33:30.497Z,39.99
2019-03-27T10:35:59.232Z,39.83
2019-03-27T10:38:28.725Z,40.10
2019-03-27T10:40:57.532Z,38.93
2019-03-27T10:43:26.278Z,38.27
2019-03-27T10:45:55.170Z,38.61
2019-03-27T10:48:23.866Z,37.58
2019-03-27T10:50:52.633Z,38.17
2019-03-27T10:53:21.428Z,35.87
2019-03-27T10:55:50.191Z,37.34
2019-03-27T10:58:18.993Z,34.85
2019-03-27T11:00:47.744Z,34.90
2019-03-27T11:03:16.491Z,34.27
2019-03-27T11:05:45.262Z,32.70
2019-03-27T11:08:14.022Z,33.13
2019-03-27T11:10:42.832Z,34.38
2019-03-27T11:13:11.563Z,34.46
2019-03-27T11:15:40.314Z,32.02
2019-03-27T11:18:10.181Z,32.19
2019-03-27T11:20:40.378Z,32.74
2019-03-27T11:23:09.146Z,32.25
2019-03-27T11:25:37.802Z,30.80
2019-03-27T11:28:06.621Z,30.93
2019-03-27T11:30:38.905Z,31.35
2019-03-27T11:33:07.950Z,31.66
2019-03-27T11:35:36.722Z,32.22
2019-03-27T11:38:05.787Z,31.67
2019-03-27T11:40:34.562Z,32.95
2019-03-27T11:43:03.313Z,31.64
2019-03-27T11:45:32.066Z,31.75
2019-03-27T11:48:00.840Z,31.13
2019-03-27T11:50:29.592Z,27.86
2019-03-27T11:52:58.381Z,27.72
2019-03-27T11:55:27.097Z,26.26
2019-03-27T11:57:55.856Z,26.84
2019-03-27T12:00:24.619Z,27.46
2019-03-27T12:02:53.351Z,30.60
2019-03-27T12:05:22.141Z,32.16
2019-03-27T12:07:50.879Z,32.45
2019-03-27T12:10:19.597Z,31.54
2019-03-27T12:12:48.492Z,30.88
2019-03-27T12:15:20.178Z,30.24
2019-03-27T12:17:48.992Z,29.38
2019-03-27T12:20:17.752Z,31.05
2019-03-27T12:22:57.221Z,32.62
2019-03-27T12:25:16.957Z,33.98
2019-03-27T12:27:45.697Z,31.02
2019-03-27T12:30:14.594Z,29.94
2019-03-27T12:32:43.323Z,30.72
2019-03-27T12:35:12.057Z,30.19
2019-03-27T12:37:40.823Z,30.86
2019-03-27T12:40:11.734Z,30.24
2019-03-27T12:42:40.072Z,30.23
2019-03-27T12:45:09.144Z,30.31
2019-03-27T12:47:37.877Z,28.29
2019-03-27T12:50:07.843Z,28.13
2019-03-27T12:52:36.591Z,28.87
2019-03-27T12:55:06.481Z,28.94
2019-03-27T12:57:35.210Z,29.07
2019-03-27T13:00:05.437Z,28.66
2019-03-27T13:02:34.212Z,27.40
2019-03-27T13:05:02.964Z,27.44
2019-03-27T13:07:31.731Z,25.83
2019-03-27T13:10:00.578Z,24.68
2019-03-27T13:12:29.357Z,25.16
2019-03-27T13:14:58.120Z,25.91
2019-03-27T13:17:26.862Z,29.20
2019-03-27T13:19:55.622Z,29.98
2019-03-27T13:22:24.351Z,28.74
2019-03-27T13:24:53.137Z,27.74
2019-03-27T13:27:21.877Z,28.32
2019-03-27T13:29:50.635Z,27.56
2019-03-27T13:32:19.378Z,28.01
2019-03-27T13:34:48.115Z,29.50
2019-03-27T13:37:16.912Z,30.10
2019-03-27T13:39:45.635Z,29.87
2019-03-27T13:42:14.376Z,28.19
2019-03-27T13:44:43.137Z,26.87
2019-03-27T13:47:11.994Z,27.94
2019-03-27T13:49:40.872Z,27.94
2019-03-27T13:52:09.615Z,26.77
2019-03-27T13:54:38.344Z,26.13
2019-03-27T13:57:07.092Z,26.09
2019-03-27T13:59:35.837Z,25.08
2019-03-27T14:02:04.659Z,26.74
2019-03-27T14:04:33.382Z,26.68
2019-03-27T14:07:02.132Z,26.67
2019-03-27T14:09:30.889Z,25.64
2019-03-27T14:11:59.624Z,25.26
2019-03-27T14:14:28.417Z,25.49
2019-03-27T14:16:57.181Z,24.84
2019-03-27T14:19:25.932Z,25.44
2019-03-27T14:21:55.307Z,25.92
2019-03-27T14:24:24.147Z,25.95
2019-03-27T14:26:52.952Z,25.89
2019-03-27T14:29:21.736Z,25.17
2019-03-27T14:31:50.538Z,24.75
2019-03-27T14:34:20.896Z,25.45
2019-03-27T14:36:49.666Z,25.89
2019-03-27T14:39:18.458Z,29.04
2019-03-27T14:41:47.211Z,28.69
2019-03-27T14:44:15.977Z,29.08
2019-03-27T14:46:44.751Z,29.59
2019-03-27T14:49:13.488Z,29.31
2019-03-27T14:51:42.283Z,28.49
2019-03-27T14:54:11.017Z,28.56
2019-03-27T14:56:39.759Z,28.21
2019-03-27T14:59:08.522Z,26.94
2019-03-27T15:01:37.264Z,27.79
2019-03-27T15:04:06.018Z,28.40
2019-03-27T15:06:34.743Z,29.23
2019-03-27T15:09:04.873Z,30.33
2019-03-27T15:11:33.599Z,29.13
2019-03-27T15:14:02.336Z,28.70
2019-03-27T15:16:31.111Z,29.73
2019-03-27T15:18:59.853Z,28.65
2019-03-27T15:21:28.661Z,27.88
2019-03-27T15:23:57.410Z,27.70
2019-03-27T15:26:26.158Z,28.15
2019-03-27T15:28:55.359Z,28.10
2019-03-27T15:31:24.396Z,27.95
2019-03-27T15:33:53.131Z,27.55
2019-03-27T15:36:21.953Z,27.98
2019-03-27T15:38:50.716Z,28.66
2019-03-27T15:41:19.473Z,28.88
2019-03-27T15:43:48.272Z,28.99
2019-03-27T15:46:17.044Z,29.38
2019-03-27T15:48:45.807Z,29.28
2019-03-27T15:51:14.598Z,29.17
2019-03-27T15:53:43.356Z,29.49
2019-03-27T15:56:12.106Z,30.40
2019-03-27T15:58:40.932Z,30.99
2019-03-27T16:01:09.816Z,31.79
2019-03-27T16:03:38.606Z,33.04
2019-03-27T16:06:07.487Z,32.22
2019-03-27T16:08:36.286Z,32.24
2019-03-27T16:11:05.301Z,33.40
2019-03-27T16:13:34.126Z,32.60
2019-03-27T16:16:02.905Z,33.56
2019-03-27T16:18:31.682Z,32.79
2019-03-27T16:21:00.544Z,33.28
2019-03-27T16:23:32.190Z,32.62
2019-03-27T16:25:59.974Z,32.65
2019-03-27T16:28:28.874Z,33.10
2019-03-27T16:30:57.689Z,33.67
2019-03-27T16:33:26.688Z,35.25
2019-03-27T16:35:55.511Z,35.58
2019-03-27T16:38:24.309Z,36.78
2019-03-27T16:40:53.180Z,37.71
2019-03-27T16:43:22.042Z,38.76
2019-03-27T16:45:51.155Z,39.33
2019-03-27T16:48:20.223Z,40.81
2019-03-27T16:50:49.091Z,42.07
2019-03-27T16:53:17.919Z,43.33
2019-03-27T16:55:46.911Z,44.00
2019-03-27T16:58:15.727Z,44.34
2019-03-27T17:00:44.503Z,45.51
2019-03-27T17:03:13.383Z,45.72
2019-03-27T17:05:53.353Z,46.12
2019-03-27T17:08:12.891Z,46.16
2019-03-27T17:10:41.666Z,46.81
2019-03-27T17:13:10.518Z,47.30
2019-03-27T17:15:39.529Z,47.66
2019-03-27T17:18:08.474Z,47.77
2019-03-27T17:20:37.302Z,48.30
2019-03-27T17:23:17.546Z,48.37
2019-03-27T17:25:36.691Z,48.59
2019-03-27T17:28:07.797Z,48.83
2019-03-27T17:30:36.597Z,49.12
2019-03-27T17:33:05.372Z,49.61
2019-03-27T17:35:35.640Z,49.81
2019-03-27T17:38:04.586Z,50.03
2019-03-27T17:40:33.393Z,50.25
2019-03-27T17:43:02.205Z,50.69
2019-03-27T17:45:30.993Z,50.86
2019-03-27T17:47:59.811Z,51.51
2019-03-27T17:50:28.638Z,52.05
2019-03-27T17:52:57.457Z,51.91
2019-03-27T17:55:26.302Z,52.45
2019-03-27T17:57:55.116Z,52.93
2019-03-27T18:00:35.560Z,53.16
2019-03-27T18:03:04.367Z,54.02
2019-03-27T18:05:33.176Z,53.99
2019-03-27T18:08:02.099Z,54.26
2019-03-27T18:10:30.894Z,54.78
2019-03-27T18:12:59.706Z,54.53
2019-03-27T18:15:28.533Z,57.64
2019-03-27T18:17:57.330Z,58.20
2019-03-27T18:20:26.172Z,54.87
2019-03-27T18:22:54.971Z,55.11
2019-03-27T18:25:23.787Z,55.36
2019-03-27T18:27:52.620Z,54.71
2019-03-27T18:30:21.533Z,54.59
2019-03-27T18:32:51.942Z,51.87
2019-03-27T18:35:20.792Z,52.55
2019-03-27T18:37:49.566Z,54.53
2019-03-27T18:40:18.547Z,56.54
2019-03-27T18:42:47.383Z,57.80
2019-03-27T18:45:17.913Z,58.38
2019-03-27T18:47:46.723Z,58.12
2019-03-27T18:50:15.916Z,57.62
2019-03-27T18:52:44.711Z,58.24
2019-03-27T18:55:25.845Z,58.75
2019-03-27T18:57:44.176Z,59.56
2019-03-27T19:00:13.453Z,59.64
2019-03-27T19:02:42.379Z,59.86
2019-03-27T19:05:11.382Z,60.00
2019-03-27T19:07:40.195Z,59.83
2019-03-27T19:10:09.901Z,59.96
2019-03-27T19:12:38.788Z,60.02
2019-03-27T19:15:07.863Z,60.03
2019-03-27T19:17:36.668Z,60.24
2019-03-27T19:20:08.677Z,59.87
2019-03-27T19:22:37.728Z,59.55
2019-03-27T19:25:09.788Z,59.26
2019-03-27T19:27:38.599Z,59.30
2019-03-27T19:30:09.543Z,59.58
2019-03-27T19:32:38.458Z,59.83
2019-03-27T19:35:07.689Z,59.83
2019-03-27T19:37:36.571Z,60.34
2019-03-27T19:40:07.071Z,60.10
2019-03-27T19:42:35.983Z,60.02
2019-03-27T19:45:08.847Z,60.79
2019-03-27T19:47:37.745Z,60.47
2019-03-27T19:50:07.238Z,60.53
2019-03-27T19:52:36.111Z,60.83
2019-03-27T19:55:06.146Z,60.95
2019-03-27T19:57:35.553Z,60.96
2019-03-27T20:00:10.542Z,60.59
2019-03-27T20:02:39.566Z,60.58
2019-03-27T20:05:08.674Z,61.33
2019-03-27T20:07:39.766Z,61.85
2019-03-27T20:10:09.173Z,62.79
2019-03-27T20:12:38.011Z,62.36
2019-03-27T20:15:12.753Z,62.13
2019-03-27T20:17:40.849Z,62.01
2019-03-27T20:20:10.354Z,63.12
2019-03-27T20:22:39.206Z,63.50
2019-03-27T20:25:09.341Z,63.79
2019-03-27T20:27:38.207Z,63.81
2019-03-27T20:30:12.829Z,64.34
2019-03-27T20:32:41.906Z,64.44
2019-03-27T20:35:10.887Z,64.88
2019-03-27T20:37:39.656Z,65.08
2019-03-27T20:40:09.082Z,65.48
2019-03-27T20:42:37.859Z,65.75
2019-03-27T20:45:07.486Z,66.27
2019-03-27T20:47:36.276Z,66.83
2019-03-27T20:50:07.033Z,66.82
2019-03-27T20:52:35.831Z,66.97
2019-03-27T20:55:06.621Z,66.88
2019-03-27T20:57:35.366Z,66.53
2019-03-27T21:00:06.092Z,66.23
2019-03-27T21:02:34.837Z,65.96
2019-03-27T21:05:04.461Z,65.46
2019-03-27T21:07:33.226Z,64.83
2019-03-27T21:10:02.078Z,64.49
2019-03-27T21:12:30.822Z,64.60
2019-03-27T21:14:59.646Z,64.48
2019-03-27T21:17:28.393Z,64.21
2019-03-27T21:19:57.124Z,64.14
2019-03-27T21:22:25.952Z,64.19
2019-03-27T21:25:07.656Z,64.04
2019-03-27T21:27:25.248Z,64.37
2019-03-27T21:29:54.046Z,64.62
2019-03-27T21:32:22.803Z,64.63
2019-03-27T21:34:51.552Z,64.33
2019-03-27T21:37:20.641Z,64.16
2019-03-27T21:39:49.383Z,64.68
2019-03-27T21:42:18.145Z,65.21
2019-03-27T21:44:46.941Z,65.49
2019-03-27T21:47:15.691Z,65.32
2019-03-27T21:49:44.441Z,65.11
2019-03-27T21:52:13.226Z,65.03
2019-03-27T21:54:41.972Z,64.92
2019-03-27T21:57:10.740Z,64.94
2019-03-27T21:59:39.587Z,64.95
2019-03-27T22:02:10.066Z,65.15
2019-03-27T22:04:38.798Z,65.33
2019-03-27T22:07:07.983Z,65.70
2019-03-27T22:09:36.723Z,65.20
2019-03-27T22:12:05.463Z,66.01
2019-03-27T22:14:34.222Z,66.03
2019-03-27T22:17:02.957Z,65.94
2019-03-27T22:19:31.762Z,65.66
2019-03-27T22:22:00.487Z,65.88
2019-03-27T22:24:29.231Z,65.58
2019-03-27T22:26:57.999Z,65.53
2019-03-27T22:29:26.730Z,65.38
2019-03-27T22:31:55.523Z,65.66
2019-03-27T22:34:24.236Z,66.09
2019-03-27T22:36:52.971Z,66.10
2019-03-27T22:39:22.401Z,65.88
2019-03-27T22:41:51.141Z,65.88
2019-03-27T22:44:19.908Z,65.70
2019-03-27T22:46:48.656Z,66.09
2019-03-27T22:49:17.392Z,65.63
2019-03-27T22:51:46.166Z,65.55
2019-03-27T22:54:14.911Z,66.01
2019-03-27T22:56:43.692Z,65.92
2019-03-27T22:59:12.427Z,65.92
2019-03-27T23:01:44.031Z,66.17
2019-03-27T23:04:12.798Z,66.21
2019-03-27T23:06:41.532Z,66.75
2019-03-27T23:09:10.277Z,66.84
2019-03-27T23:11:39.020Z,66.73
2019-03-27T23:14:07.759Z,66.34
2019-03-27T23:16:36.525Z,65.99
2019-03-27T23:19:05.259Z,65.93
2019-03-27T23:21:34.022Z,65.63
2019-03-27T23:24:02.751Z,65.22
2019-03-27T23:26:31.531Z,64.99
2019-03-27T23:29:00.261Z,65.24
2019-03-27T23:31:28.983Z,64.96
2019-03-27T23:34:00.373Z,65.11
2019-03-27T23:36:28.209Z,65.11
2019-03-27T23:38:56.974Z,65.31
2019-03-27T23:41:25.687Z,65.46
2019-03-27T23:43:54.423Z,65.77
2019-03-27T23:46:23.176Z,65.94
2019-03-27T23:48:51.916Z,66.18
2019-03-27T23:51:20.699Z,65.90
2019-03-27T23:53:49.426Z,65.28
2019-03-27T23:56:18.168Z,64.78
2019-03-27T23:58:46.935Z,65.03
